Accueil
METAR-TAF:

METAR-TAF

Aéroports :

NWS Office

Ponape, Micronésie

latitude: 06-58N, longitude: 158-13E, altitude: 39 m

Observation

Le bulletin a été fait il y a 2 heures et 13 minutes, à 22:55 UTC
Vent 5 kt de nord-est
Température 32°C
Humidité 71%
Pression 1012 hPa
Visibilité: 24.1 km
Quelques nuages à une hauteur de 1800 ft
Nuages épars à une hauteur de 30000 ft

METAR: PTTP 222255Z 05005KT 15SM FEW018 SCT300 32/26 A2988 RMK SLP118 T03220260

Heure: 12:08 (01:08 UTC)


TAF: absent

Observations et prévisions météorologiques de plus de 4000 aéroports (messages METAR et TAF).

Les stations disponibles sont représentées par des disques jaunes et rouges sur la carte.

Passer la souris dessus pour voir le nom de la station.

Cliquer dessus pour voir les observations et prévisions météorologiques.

Pour changer de carte: cliquez sur les boutons verts avec une croix noire pour zoomer, sur le bouton vert avec un tiret pour effectuer un zoom arrière, ou sur les flèches vertes pour les cartes adjacentes.


METAR-TAF: